createdAt,value
2022-12-12T17:49:30.860Z,3.90
2022-12-12T17:54:34.404Z,1.80
2022-12-12T17:59:38.809Z,1.50
2022-12-12T18:04:43.099Z,1.20
2022-12-12T18:09:46.787Z,1.10
2022-12-12T18:14:50.722Z,1.00
2022-12-12T18:19:56.146Z,0.90
2022-12-12T18:25:01.476Z,0.90
2022-12-12T18:30:05.694Z,0.90
2022-12-12T18:35:10.595Z,0.90
2022-12-12T18:40:14.771Z,0.80
2022-12-12T18:45:19.633Z,0.80
2022-12-12T18:50:23.318Z,0.80
2022-12-12T18:55:30.801Z,0.70
2022-12-12T19:00:35.080Z,0.50
2022-12-12T19:05:43.755Z,0.30
2022-12-12T19:10:48.184Z,0.30
2022-12-12T19:15:52.920Z,0.40
2022-12-12T19:20:56.352Z,0.30
2022-12-12T19:26:12.348Z,0.40
2022-12-12T19:31:17.630Z,0.50
2022-12-12T19:36:25.766Z,0.40
2022-12-12T19:41:30.115Z,0.30
2022-12-12T19:46:34.074Z,0.30
2022-12-12T19:51:39.706Z,0.20
2022-12-12T19:56:43.790Z,0.30
2022-12-12T20:01:49.919Z,0.20
2022-12-12T20:06:54.120Z,0.30
2022-12-12T20:12:00.683Z,0.30
2022-12-12T20:17:05.150Z,0.20
2022-12-12T20:22:09.820Z,0.20
2022-12-12T20:27:15.927Z,0.10
2022-12-12T20:32:20.668Z,0.10
2022-12-12T20:37:23.963Z,0.10
2022-12-12T20:42:27.818Z,0.00
2022-12-12T20:47:33.319Z,0.00
2022-12-12T20:52:37.747Z,0.00
2022-12-12T20:57:42.180Z,0.00
2022-12-12T21:02:45.585Z,-3276.70
2022-12-12T21:07:50.055Z,-3276.70
2022-12-12T21:12:54.082Z,-3276.60
2022-12-12T21:17:57.851Z,-3276.50
2022-12-12T21:23:01.696Z,-3276.50
2022-12-12T21:28:07.083Z,-3276.60
2022-12-12T21:33:11.329Z,-3276.60
2022-12-12T21:38:16.350Z,-3276.70
2022-12-12T21:43:21.002Z,-3276.70
2022-12-12T21:48:25.815Z,-3276.70
2022-12-12T21:53:35.816Z,-3276.70
2022-12-12T21:58:41.409Z,0.00
2022-12-12T22:03:47.654Z,0.00
2022-12-12T22:08:52.496Z,0.00
2022-12-12T22:13:56.666Z,0.00
2022-12-12T22:19:05.572Z,0.00
2022-12-12T22:24:11.019Z,0.10
2022-12-12T22:29:18.094Z,0.10
2022-12-12T22:34:24.703Z,0.20
2022-12-12T22:39:29.396Z,0.30
2022-12-12T22:44:34.006Z,0.40
2022-12-12T22:49:38.336Z,0.50
2022-12-12T22:54:45.462Z,0.60
2022-12-12T22:59:49.797Z,0.80
2022-12-12T23:04:54.392Z,0.80
2022-12-12T23:10:02.513Z,0.90
2022-12-12T23:15:08.037Z,1.00
2022-12-12T23:20:11.938Z,1.00
2022-12-12T23:25:16.026Z,1.00
2022-12-12T23:30:20.207Z,1.00
2022-12-12T23:35:24.758Z,0.90
2022-12-12T23:40:29.609Z,0.90
2022-12-12T23:45:36.649Z,0.90
2022-12-12T23:50:41.206Z,0.90
2022-12-12T23:55:46.029Z,0.90
